Middle Point, Ohio
Current Conditions -  °F | °C
As of 12:53 AM on Sunday 26 Oct 2014 (Local Time) from KAOH Reporting Station
Clear Clear  
Wind Chill: 53°   Ceiling: Unl
Heat Index: 53°   Visibility: 10mi
Dew Point: 35°   Wind: 8mph
Humidity: 50%   Direction: 300°WNW
Pressure: 29.9"   Gusts: NA
Location:  40.86°N, 84.45°W
Report Text: KAOH 260453Z AUTO 30007KT 10SM CLR 12/02 A2990 RMK AO2 SLP121 T01170017 402330106
Loading
Personal Weather Stations






























Interactive Weather Map
Tropical Storm Tracking
New forecast layout! Learn more

10-Day Weather Forecast

Advertisements
Track Severe Weather on mobile